Time;durP1;ratioP1;P1;durP2;ratioP2;P2;SDS_P1;SDS_P2;PMS_P1;PMS_P2;Temp;Humidity;BMP_temperature;BMP_pressure;BME280_temperature;BME280_humidity;BME280_pressure;Samples;Min_cycle;Max_cycle;Signal;HPM_P1;HPM_P2
2023/10/17 00:01:00;;;;;;;3.67;2.70;;;;;;;-142.91;100.00;56616.03;5134799;27;20576;-68
2023/10/17 00:03:26;;;;;;;9.02;3.80;;;;;;;-142.91;100.00;56616.03;5133993;27;20207;-69
2023/10/17 00:05:55;;;;;;;3.78;3.40;;;;;;;-142.91;100.00;56616.03;5132499;27;20249;-69
2023/10/17 00:08:22;;;;;;;3.72;3.35;;;;;;;-142.91;100.00;56616.03;5124859;27;20602;-67
2023/10/17 00:10:49;;;;;;;5.20;3.67;;;;;;;-142.91;100.00;56616.03;5133288;27;20196;-67
2023/10/17 00:13:31;;;;;;;3.45;3.15;;;;;;;-142.91;100.00;56616.03;5138990;27;20574;-69
2023/10/17 00:16:01;;;;;;;3.67;3.38;;;;;;;-142.91;100.00;56616.03;5134033;27;20761;-68
2023/10/17 00:18:27;;;;;;;3.60;3.30;;;;;;;-142.91;100.00;56616.03;5138010;27;20201;-68
2023/10/17 00:20:55;;;;;;;6.82;4.00;;;;;;;-142.91;100.00;56616.03;5134991;27;20220;-66
2023/10/17 00:23:22;;;;;;;4.32;3.92;;;;;;;-142.91;100.00;56616.03;5134310;27;20202;-66
2023/10/17 00:25:50;;;;;;;10.18;3.70;;;;;;;-142.91;100.00;56616.03;5135520;27;20257;-68
2023/10/17 00:28:20;;;;;;;6.88;4.55;;;;;;;-142.91;100.00;56616.03;5132246;27;20224;-68
2023/10/17 00:30:48;;;;;;;4.30;3.90;;;;;;;-142.91;100.00;56616.03;5137744;27;20215;-67
2023/10/17 00:33:20;;;;;;;4.53;3.67;;;;;;;-142.91;100.00;56616.03;5136421;27;20200;-68
2023/10/17 00:35:51;;;;;;;4.78;3.72;;;;;;;-142.91;100.00;56616.03;5136622;27;20204;-69
2023/10/17 00:38:18;;;;;;;3.55;3.25;;;;;;;-142.91;100.00;56616.03;5134877;27;20195;-67
2023/10/17 00:40:51;;;;;;;16.58;3.65;;;;;;;-142.91;100.00;56616.03;5134722;27;20670;-68
2023/10/17 00:43:19;;;;;;;5.10;3.42;;;;;;;-142.91;100.00;56616.03;5139177;27;20199;-68
2023/10/17 00:45:46;;;;;;;3.97;3.20;;;;;;;-142.91;100.00;56616.03;5139669;27;20257;-69
2023/10/17 00:48:18;;;;;;;3.67;3.28;;;;;;;-142.91;100.00;56616.03;5133749;27;20717;-67
2023/10/17 00:50:48;;;;;;;9.15;3.83;;;;;;;-142.91;100.00;56616.03;5137514;27;20274;-68
2023/10/17 00:53:16;;;;;;;6.97;3.78;;;;;;;-142.91;100.00;56616.03;5135210;27;20234;-66
2023/10/17 00:55:50;;;;;;;5.60;3.65;;;;;;;-142.91;100.00;56616.03;5130996;27;20192;-67
2023/10/17 00:58:18;;;;;;;11.13;4.15;;;;;;;-142.91;100.00;56616.03;5136770;27;20192;-68
2023/10/17 01:00:49;;;;;;;6.10;3.97;;;;;;;-142.91;100.00;56616.03;5136107;27;20200;-68
2023/10/17 01:03:16;;;;;;;8.60;4.60;;;;;;;-142.91;100.00;56616.03;5137394;27;20317;-69
2023/10/17 01:05:57;;;;;;;6.85;3.95;;;;;;;-142.91;100.00;56616.03;5144807;27;20192;-68
2023/10/17 01:08:36;;;;;;;5.88;3.90;;;;;;;-142.91;100.00;56616.03;5130457;27;20281;-69
2023/10/17 01:11:08;;;;;;;5.55;4.18;;;;;;;-142.91;100.00;56616.03;5137106;27;20598;-69
2023/10/17 01:13:37;;;;;;;4.40;4.00;;;;;;;-142.91;100.00;56616.03;5136342;27;20203;-68
2023/10/17 01:16:07;;;;;;;5.15;3.78;;;;;;;-142.91;100.00;56616.03;5136029;27;20200;-70
2023/10/17 01:18:35;;;;;;;8.77;3.95;;;;;;;-142.91;100.00;56616.03;5136141;27;20202;-70
2023/10/17 01:21:03;;;;;;;5.75;3.50;;;;;;;-142.91;100.00;56616.03;5135479;27;20196;-67
2023/10/17 01:23:31;;;;;;;6.43;4.10;;;;;;;-142.91;100.00;56616.03;5136915;27;20203;-70
2023/10/17 01:26:01;;;;;;;5.97;3.88;;;;;;;-142.91;100.00;56616.03;5139205;27;20995;-70
2023/10/17 01:28:28;;;;;;;4.25;3.35;;;;;;;-142.91;100.00;56616.03;5135409;27;20223;-67
2023/10/17 01:30:55;;;;;;;10.52;4.55;;;;;;;-142.91;100.00;56616.03;5135256;27;20224;-70
2023/10/17 01:33:24;;;;;;;9.45;3.65;;;;;;;-142.91;100.00;56616.03;5134363;27;20700;-69
2023/10/17 01:35:52;;;;;;;4.78;3.72;;;;;;;-142.91;100.00;56616.03;5135316;27;20598;-69
2023/10/17 01:38:19;;;;;;;4.95;3.97;;;;;;;-142.91;0.00;56616.03;5136434;27;20193;-66
2023/10/17 01:40:45;;;;;;;13.95;4.18;;;;;;;-142.91;100.00;56616.03;5133318;27;20195;-70
2023/10/17 01:43:14;;;;;;;5.20;3.95;;;;;;;-142.91;100.00;56616.03;5134785;27;20268;-67
2023/10/17 01:45:42;;;;;;;5.90;4.00;;;;;;;-142.91;100.00;56616.03;5132539;27;20212;-70
2023/10/17 01:48:11;;;;;;;3.72;3.30;;;;;;;-142.91;100.00;56616.03;5136276;27;20230;-66
2023/10/17 01:50:39;;;;;;;6.32;3.60;;;;;;;-142.91;100.00;56616.03;5135260;27;20196;-70
2023/10/17 01:53:12;;;;;;;6.63;3.75;;;;;;;-142.91;100.00;56616.03;5136341;27;20559;-67
2023/10/17 01:55:41;;;;;;;4.38;3.97;;;;;;;-142.91;100.00;56616.03;5137836;27;20251;-67
2023/10/17 01:58:09;;;;;;;13.52;4.25;;;;;;;-142.91;100.00;56616.03;5136711;27;20676;-69
2023/10/17 02:00:38;;;;;;;8.13;3.85;;;;;;;-142.91;100.00;56616.03;5134283;27;20195;-66
2023/10/17 02:03:07;;;;;;;8.77;3.78;;;;;;;-142.91;100.00;56616.03;5134811;27;20192;-67
2023/10/17 02:05:34;;;;;;;4.70;4.00;;;;;;;-142.91;100.00;56616.03;5136549;27;20251;-68
2023/10/17 02:08:01;;;;;;;6.18;4.20;;;;;;;-142.91;100.00;56616.03;5126921;27;20341;-69
2023/10/17 02:10:29;;;;;;;5.78;3.85;;;;;;;-142.91;100.00;56616.03;5132831;27;20192;-67
2023/10/17 02:12:56;;;;;;;5.50;3.80;;;;;;;-142.91;100.00;56616.03;5133541;27;20195;-68
2023/10/17 02:15:24;;;;;;;5.47;4.28;;;;;;;-142.91;100.00;56616.03;5132974;27;20197;-67
2023/10/17 02:17:54;;;;;;;10.50;4.35;;;;;;;-142.91;100.00;56616.03;5137125;27;20246;-69
2023/10/17 02:20:29;;;;;;;4.63;3.55;;;;;;;-142.91;100.00;56616.03;5136185;27;20200;-69
2023/10/17 02:22:57;;;;;;;5.75;3.53;;;;;;;-142.91;100.00;56616.03;5131467;27;20227;-65
2023/10/17 02:25:31;;;;;;;8.65;3.90;;;;;;;-142.91;100.00;56616.03;5132248;27;20197;-70
2023/10/17 02:27:58;;;;;;;3.75;3.33;;;;;;;-142.91;100.00;56616.03;5132533;27;20226;-68
2023/10/17 02:30:25;;;;;;;5.63;3.90;;;;;;;-142.91;100.00;56616.03;5133727;27;20683;-65
2023/10/17 02:32:53;;;;;;;9.27;4.30;;;;;;;-142.91;100.00;56616.03;5132898;27;20223;-70
2023/10/17 02:35:28;;;;;;;4.90;3.75;;;;;;;-142.91;100.00;56616.03;5131702;27;20298;-69
2023/10/17 02:37:57;;;;;;;3.95;3.65;;;;;;;-142.91;100.00;56616.03;5129709;27;20198;-69
2023/10/17 02:40:24;;;;;;;6.38;4.25;;;;;;;-142.91;100.00;56616.03;5134098;27;20207;-69
2023/10/17 02:42:51;;;;;;;4.13;3.67;;;;;;;-142.91;100.00;56616.03;5134519;27;20578;-69
2023/10/17 02:45:24;;;;;;;4.35;4.00;;;;;;;-142.91;100.00;56616.03;5133838;27;20742;-68
2023/10/17 02:47:54;;;;;;;7.80;4.78;;;;;;;-142.91;100.00;56616.03;5132057;27;20697;-68
2023/10/17 02:50:26;;;;;;;4.53;4.13;;;;;;;-142.91;100.00;56616.03;5136690;27;20248;-65
2023/10/17 02:52:53;;;;;;;4.35;4.05;;;;;;;-142.91;100.00;56616.03;5135300;27;20644;-70
2023/10/17 02:55:23;;;;;;;6.13;3.45;;;;;;;-142.91;100.00;56616.03;5133475;27;20214;-70
2023/10/17 02:57:52;;;;;;;8.10;4.70;;;;;;;-142.91;100.00;56616.03;5134627;27;20204;-67
2023/10/17 03:00:23;;;;;;;4.75;3.58;;;;;;;-142.91;100.00;56616.03;5134386;27;20204;-68
2023/10/17 03:02:52;;;;;;;9.75;3.95;;;;;;;-142.91;100.00;56616.03;5135362;27;20196;-67
2023/10/17 03:05:20;;;;;;;5.97;3.78;;;;;;;-142.91;100.00;56616.03;5132812;27;20678;-68
2023/10/17 03:07:49;;;;;;;8.15;3.88;;;;;;;-142.91;100.00;56616.03;5133184;27;20331;-70
2023/10/17 03:10:23;;;;;;;4.20;3.42;;;;;;;-142.91;100.00;56616.03;5133524;27;20198;-69
2023/10/17 03:12:55;;;;;;;4.30;3.47;;;;;;;-142.91;100.00;56616.03;5136399;27;20563;-70
2023/10/17 03:15:23;;;;;;;6.15;3.75;;;;;;;-142.91;100.00;56616.03;5131673;27;20232;-69
2023/10/17 03:17:54;;;;;;;4.85;3.92;;;;;;;-142.91;100.00;56616.03;5135041;27;20188;-69
2023/10/17 03:20:36;;;;;;;14.27;4.10;;;;;;;-142.91;100.00;56616.03;5134808;27;20200;-69
2023/10/17 03:23:03;;;;;;;6.57;3.53;;;;;;;-142.91;100.00;56616.03;5130109;27;20271;-70
2023/10/17 03:25:36;;;;;;;4.75;3.60;;;;;;;-142.91;100.00;56616.03;5133944;27;20243;-70
2023/10/17 03:28:04;;;;;;;5.72;3.85;;;;;;;-142.91;100.00;56616.03;5134124;27;20889;-69
2023/10/17 03:30:30;;;;;;;8.73;4.10;;;;;;;-142.91;100.00;56616.03;5132763;27;20192;-69
2023/10/17 03:33:13;;;;;;;4.18;3.78;;;;;;;-142.91;100.00;56616.03;5136214;27;20268;-69
2023/10/17 03:36:03;;;;;;;4.30;3.78;;;;;;;-142.91;100.00;56616.03;5135407;27;20200;-69
2023/10/17 03:38:32;;;;;;;4.95;3.80;;;;;;;-142.91;100.00;56616.03;5133527;27;20200;-69
2023/10/17 03:41:04;;;;;;;7.57;4.03;;;;;;;-142.91;65.15;56616.03;5134678;27;20200;-66
2023/10/17 03:43:38;;;;;;;7.47;4.07;;;;;;;-142.91;100.00;56616.03;5131715;27;20204;-69
2023/10/17 03:46:05;;;;;;;4.47;4.00;;;;;;;-142.91;0.00;56616.03;5138270;27;20195;-69
2023/10/17 03:48:36;;;;;;;6.70;4.25;;;;;;;-142.91;100.00;56616.03;5136965;27;20220;-69
2023/10/17 03:51:15;;;;;;;11.27;3.83;;;;;;;-142.91;100.00;56616.03;5138512;27;20286;-70
2023/10/17 03:53:46;;;;;;;12.57;4.30;;;;;;;-142.91;100.00;56616.03;5138584;27;20307;-69
2023/10/17 03:56:23;;;;;;;4.80;3.40;;;;;;;-142.91;100.00;56616.03;5138259;27;20316;-70
2023/10/17 03:58:54;;;;;;;8.40;4.57;;;;;;;-142.91;100.00;56616.03;5135278;27;20207;-66
2023/10/17 04:01:23;;;;;;;7.70;4.07;;;;;;;-142.91;100.00;56616.03;5136587;27;20200;-67
2023/10/17 04:03:53;;;;;;;5.07;3.90;;;;;;;-142.91;100.00;56616.03;5137658;27;20626;-70
2023/10/17 04:06:34;;;;;;;10.38;5.28;;;;;;;-142.91;100.00;56616.03;5137801;27;20207;-68
2023/10/17 04:12:02;;;;;;;4.45;3.58;;;;;;;;;;5062995;28;20941;-69
2023/10/17 04:14:33;;;;;;;9.27;3.90;;;;;;;;;;5060714;28;20198;-68
2023/10/17 04:17:02;;;;;;;13.18;4.60;;;;;;;;;;5061299;28;20684;-67
2023/10/17 04:19:31;;;;;;;5.13;4.20;;;;;;;;;;5060247;28;20207;-66
2023/10/17 04:22:07;;;;;;;12.43;5.32;;;;;;;;;;5060625;28;20260;-68
2023/10/17 04:24:35;;;;;;;12.70;4.78;;;;;;;;;;5059590;28;20245;-68
2023/10/17 04:27:19;;;;;;;14.05;4.88;;;;;;;;;;5059176;28;20276;-68
2023/10/17 04:29:50;;;;;;;7.50;4.32;;;;;;;;;;5060065;28;20198;-66
2023/10/17 04:32:19;;;;;;;12.30;4.70;;;;;;;;;;5051046;28;20250;-67
2023/10/17 04:34:46;;;;;;;6.85;4.55;;;;;;;;;;5050161;28;20269;-68
2023/10/17 04:37:16;;;;;;;7.40;4.80;;;;;;;;;;5047188;28;20207;-69
2023/10/17 04:39:49;;;;;;;11.98;7.03;;;;;;;;;;5051881;28;20212;-68
2023/10/17 04:42:25;;;;;;;29.65;16.00;;;;;;;;;;5047774;28;20203;-68
2023/10/17 04:44:52;;;;;;;11.15;6.78;;;;;;;;;;5050994;28;20195;-67
2023/10/17 04:47:29;;;;;;;8.63;5.38;;;;;;;;;;5051767;28;20374;-68
2023/10/17 04:49:55;;;;;;;22.27;9.98;;;;;;;;;;5048218;28;20578;-69
2023/10/17 04:52:23;;;;;;;20.30;9.85;;;;;;;;;;5050350;28;20715;-65
2023/10/17 04:54:52;;;;;;;13.85;7.53;;;;;;;;;;5050327;28;20276;-70
2023/10/17 04:57:21;;;;;;;10.15;5.07;;;;;;;;;;5051748;28;20689;-69
2023/10/17 04:59:59;;;;;;;11.07;4.57;;;;;;;;;;5051966;28;20211;-69
2023/10/17 05:02:36;;;;;;;10.98;4.90;;;;;;;;;;5047867;28;20207;-68
2023/10/17 06:19:18;;;;;;;12.77;4.80;;;;;;;;;;5033398;28;20205;-68
2023/10/17 06:27:50;;;;;;;7.50;2.92;;;;;;;;;;5017470;28;20191;-68
2023/10/17 06:32:49;;;;;;;5.30;3.67;;;;;;;;;;5031103;28;20241;-69
2023/10/17 06:35:20;;;;;;;3.67;3.30;;;;;;;;;;5031029;28;20256;-69
2023/10/17 06:37:47;;;;;;;6.28;3.38;;;;;;;;;;5035867;28;20638;-70
2023/10/17 06:40:15;;;;;;;6.28;3.08;;;;;;;;;;5033980;28;20203;-70
2023/10/17 06:42:48;;;;;;;9.02;3.22;;;;;;;;;;5035681;28;20242;-71
2023/10/17 06:45:18;;;;;;;13.15;3.22;;;;;;;;;;5035400;28;20199;-68
2023/10/17 06:47:48;;;;;;;3.50;2.65;;;;;;;;;;5035113;28;20853;-69
2023/10/17 06:50:17;;;;;;;4.88;3.40;;;;;;;;;;5033842;28;20223;-66
2023/10/17 06:53:02;;;;;;;3.63;2.58;;;;;;;;;;5033801;28;20204;-71
2023/10/17 06:55:34;;;;;;;10.70;3.92;;;;;;;;;;5034518;28;20261;-69
2023/10/17 06:58:08;;;;;;;8.68;3.22;;;;;;;;;;5035196;28;20221;-69
2023/10/17 07:00:44;;;;;;;3.90;2.90;;;;;;;;;;5035535;28;20207;-70
2023/10/17 07:03:13;;;;;;;6.30;3.30;;;;;;;;;;5032845;28;20479;-71
2023/10/17 07:05:39;;;;;;;4.18;2.20;;;;;;;;;;5033602;28;20869;-68
2023/10/17 07:08:13;;;;;;;3.00;2.25;;;;;;;;;;5033381;28;20227;-70
2023/10/17 07:10:40;;;;;;;2.53;2.33;;;;;;;;;;5032987;28;20253;-70
2023/10/17 07:13:25;;;;;;;3.15;2.20;;;;;;;;;;5035926;28;20208;-71
2023/10/17 07:15:54;;;;;;;3.70;2.10;;;;;;;;;;5034309;28;20204;-70
2023/10/17 07:21:17;;;;;;;1.77;1.52;;;;;;;;;;5029755;28;20193;-70
2023/10/17 07:23:45;;;;;;;8.23;2.75;;;;;;;;;;5031773;28;20298;-70
2023/10/17 07:26:17;;;;;;;4.43;2.75;;;;;;;;;;5032796;28;20199;-71
2023/10/17 07:28:44;;;;;;;6.60;2.40;;;;;;;;;;5036181;28;20216;-69
2023/10/17 07:31:12;;;;;;;6.30;2.45;;;;;;;;;;5032653;28;20230;-70
2023/10/17 07:33:38;;;;;;;7.47;2.28;;;;;;;;;;5034841;28;20211;-66
2023/10/17 07:36:06;;;;;;;2.80;1.95;;;;;;;;;;5036831;28;20257;-72
2023/10/17 07:38:32;;;;;;;5.13;2.65;;;;;;;;;;5035522;28;20203;-71
2023/10/17 07:41:12;;;;;;;14.00;2.50;;;;;;;;;;5033406;28;20203;-70
2023/10/17 07:43:43;;;;;;;6.72;2.30;;;;;;;;;;5035343;28;20207;-70
2023/10/17 07:46:15;;;;;;;2.45;1.92;;;;;;;;;;5033364;28;20203;-68
2023/10/17 07:48:46;;;;;;;4.03;2.05;;;;;;;;;;5034966;28;20203;-69
2023/10/17 07:51:14;;;;;;;5.75;2.25;;;;;;;;;;5032215;28;20223;-68
2023/10/17 07:53:45;;;;;;;3.83;1.90;;;;;;;;;;5033920;28;20211;-70
2023/10/17 07:56:20;;;;;;;3.28;2.15;;;;;;;;;;5036689;28;20663;-68
2023/10/17 07:58:46;;;;;;;2.70;2.50;;;;;;;;;;5032980;28;20207;-69
2023/10/17 08:01:16;;;;;;;2.20;2.00;;;;;;;;;;5034558;28;20206;-71
2023/10/17 08:03:49;;;;;;;4.60;2.30;;;;;;;;;;5034696;28;20269;-70
2023/10/17 08:06:21;;;;;;;1.77;1.67;;;;;;;;;;5034440;28;20292;-69
2023/10/17 08:08:49;;;;;;;1.80;1.70;;;;;;;;;;5029652;28;20200;-70
2023/10/17 08:11:27;;;;;;;2.78;1.83;;;;;;;;;;5036235;28;20242;-71
2023/10/17 08:13:55;;;;;;;6.75;2.22;;;;;;;;;;5033804;28;20202;-72
2023/10/17 08:16:26;;;;;;;2.58;1.90;;;;;;;;;;5031453;28;20742;-72
2023/10/17 08:18:58;;;;;;;4.18;2.00;;;;;;;;;;5034478;28;20265;-67
2023/10/17 08:21:48;;;;;;;2.92;2.10;;;;;;;;;;5029182;28;20202;-73
2023/10/17 08:24:13;;;;;;;2.08;1.88;;;;;;;;;;5031011;28;20214;-70
2023/10/17 08:26:42;;;;;;;5.05;2.22;;;;;;;;;;5034312;28;20207;-71
2023/10/17 08:29:10;;;;;;;2.15;1.60;;;;;;;;;;5030904;28;20585;-69
2023/10/17 08:31:43;;;;;;;6.10;2.50;;;;;;;;;;5031566;28;20231;-70
2023/10/17 08:34:10;;;;;;;1.70;1.60;;;;;;;;;;5029439;28;20207;-67
2023/10/17 08:36:46;;;;;;;3.60;2.40;;;;;;;;;;5029723;28;20295;-70
2023/10/17 08:41:57;;;;;;;2.25;1.80;;;;;;;;;;5028859;28;20203;-68
2023/10/17 08:44:28;;;;;;;6.15;1.92;;;;;;;;;;5031079;28;20293;-69
2023/10/17 08:46:55;;;;;;;2.13;1.95;;;;;;;;;;5031139;28;20196;-71
2023/10/17 08:49:21;;;;;;;2.42;1.45;;;;;;;;;;5032065;28;20215;-71
2023/10/17 08:51:48;;;;;;;2.50;2.30;;;;;;;;;;5033037;28;20224;-70
2023/10/17 08:54:18;;;;;;;6.18;1.80;;;;;;;;;;5029474;28;20207;-69
2023/10/17 08:56:45;;;;;;;1.85;1.75;;;;;;;;;;5034169;28;20693;-70
2023/10/17 08:59:15;;;;;;;10.32;2.35;;;;;;;;;;5035758;28;20210;-65
2023/10/17 09:01:56;;;;;;;2.92;1.75;;;;;;;;;;5031532;28;20658;-69
2023/10/17 09:04:24;;;;;;;4.22;1.75;;;;;;;;;;5036853;28;20222;-71
2023/10/17 09:06:59;;;;;;;6.72;2.13;;;;;;;;;;5034981;28;20207;-68
2023/10/17 09:09:29;;;;;;;12.15;2.60;;;;;;;;;;5037733;28;20199;-70
2023/10/17 09:14:48;;;;;;;2.33;1.80;;;;;;;;;;5023812;28;20200;-71
2023/10/17 09:17:17;;;;;;;6.55;2.55;;;;;;;;;;5036165;28;20210;-72
2023/10/17 09:19:47;;;;;;;4.25;2.42;;;;;;;;;;5034339;28;20239;-71
2023/10/17 09:22:17;;;;;;;4.63;1.98;;;;;;;;;;5034602;28;20199;-70
2023/10/17 09:24:48;;;;;;;1.90;1.70;;;;;;;;;;5034671;28;20235;-69
2023/10/17 09:27:15;;;;;;;6.03;1.90;;;;;;;;;;5034624;28;20207;-68
2023/10/17 09:29:47;;;;;;;5.40;2.20;;;;;;;;;;5034704;28;20322;-70
2023/10/17 09:32:14;;;;;;;3.63;2.05;;;;;;;;;;5038153;28;20263;-69
2023/10/17 09:34:42;;;;;;;5.47;2.17;;;;;;;;;;5036719;28;20231;-70
2023/10/17 09:37:12;;;;;;;1.90;1.80;;;;;;;;;;5035202;28;20229;-69
2023/10/17 09:39:46;;;;;;;7.55;4.05;;;;;;;;;;5036146;28;20295;-66
2023/10/17 09:42:12;;;;;;;4.63;3.10;;;;;;;;;;5029981;28;20252;-65
2023/10/17 09:44:40;;;;;;;6.32;3.08;;;;;;;;;;5035936;28;20222;-68
2023/10/17 09:47:08;;;;;;;3.28;2.55;;;;;;;;;;5034897;28;20211;-64
2023/10/17 09:49:37;;;;;;;2.88;2.63;;;;;;;;;;5035100;28;20200;-66
2023/10/17 09:52:09;;;;;;;4.75;2.88;;;;;;;;;;5034984;28;20610;-66
2023/10/17 09:54:36;;;;;;;4.57;2.00;;;;;;;;;;5034946;28;20203;-65
2023/10/17 09:57:08;;;;;;;4.80;2.58;;;;;;;;;;5035687;28;20751;-65
2023/10/17 09:59:41;;;;;;;5.60;2.58;;;;;;;;;;5035972;28;20206;-65
2023/10/17 10:02:09;;;;;;;3.47;2.08;;;;;;;;;;5036849;28;20291;-66
2023/10/17 10:04:37;;;;;;;2.30;2.17;;;;;;;;;;5034831;28;20203;-66
2023/10/17 10:07:19;;;;;;;3.90;2.25;;;;;;;;;;5034520;28;20195;-67
2023/10/17 10:09:46;;;;;;;3.60;2.00;;;;;;;;;;5034594;28;20239;-66
2023/10/17 10:12:14;;;;;;;4.28;1.60;;;;;;;;;;5030911;28;20303;-66
2023/10/17 10:14:43;;;;;;;2.00;1.90;;;;;;;;;;5037320;28;20210;-66
2023/10/17 10:17:14;;;;;;;2.75;1.50;;;;;;;;;;5032895;28;20270;-66
2023/10/17 10:19:59;;;;;;;1.83;1.73;;;;;;;;;;5036222;28;20199;-66
2023/10/17 10:22:45;;;;;;;1.90;1.80;;;;;;;;;;5030258;28;20199;-67
2023/10/17 10:25:12;;;;;;;3.13;2.20;;;;;;;;;;5033717;28;20733;-67
2023/10/17 10:27:39;;;;;;;3.42;2.00;;;;;;;;;;5033777;28;20200;-66
2023/10/17 10:30:24;;;;;;;5.75;2.30;;;;;;;;;;5035478;28;20870;-65
2023/10/17 10:32:52;;;;;;;2.75;2.40;;;;;;;;;;5033697;28;20486;-66
2023/10/17 10:35:18;;;;;;;2.20;1.95;;;;;;;;;;5033844;28;20237;-67
2023/10/17 10:37:52;;;;;;;5.78;2.22;;;;;;;;;;5036767;28;20249;-68
2023/10/17 10:40:24;;;;;;;7.00;2.25;;;;;;;;;;5031442;28;20211;-66
2023/10/17 10:42:51;;;;;;;2.72;2.00;;;;;;;;;;5032250;28;20195;-66
2023/10/17 10:45:24;;;;;;;4.40;2.33;;;;;;;;;;5035050;28;20329;-66
2023/10/17 10:47:57;;;;;;;3.20;1.65;;;;;;;;;;5034652;28;20672;-65
2023/10/17 10:50:25;;;;;;;2.35;2.15;;;;;;;;;;5036342;28;20225;-66
2023/10/17 10:52:51;;;;;;;4.63;1.95;;;;;;;;;;5035432;28;20219;-65
2023/10/17 10:55:18;;;;;;;3.90;1.73;;;;;;;;;;5034623;28;20211;-67
2023/10/17 10:57:46;;;;;;;3.03;1.80;;;;;;;;;;5032986;28;22301;-66
2023/10/17 11:00:15;;;;;;;6.03;2.03;;;;;;;;;;5034166;28;20200;-66
2023/10/17 11:02:43;;;;;;;1.98;1.88;;;;;;;;;;5031405;28;20208;-67
2023/10/17 11:05:13;;;;;;;4.78;1.98;;;;;;;;;;5035350;28;20199;-67
2023/10/17 11:07:41;;;;;;;4.78;2.30;;;;;;;;;;5033835;28;20199;-66
2023/10/17 11:10:08;;;;;;;8.30;2.00;;;;;;;;;;5032321;28;20243;-66
2023/10/17 11:12:35;;;;;;;6.93;2.05;;;;;;;;;;5033492;28;20273;-65
2023/10/17 11:15:14;;;;;;;2.72;2.10;;;;;;;;;;5034294;28;20203;-67
2023/10/17 11:17:41;;;;;;;2.72;1.85;;;;;;;;;;5035796;28;20220;-66
2023/10/17 11:20:14;;;;;;;3.38;2.00;;;;;;;;;;5034914;28;20572;-65
2023/10/17 11:22:42;;;;;;;4.07;1.98;;;;;;;;;;5036323;28;20191;-65
2023/10/17 11:25:13;;;;;;;4.45;2.15;;;;;;;;;;5034752;28;20199;-64
2023/10/17 11:27:41;;;;;;;5.80;1.80;;;;;;;;;;5033623;28;20281;-66
2023/10/17 11:30:08;;;;;;;8.15;2.10;;;;;;;;;;5034609;28;20253;-67
2023/10/17 11:32:40;;;;;;;3.60;2.03;;;;;;;;;;5035392;28;20223;-66
2023/10/17 11:35:19;;;;;;;3.13;1.80;;;;;;;;;;5035039;28;20650;-66
2023/10/17 11:37:47;;;;;;;5.15;1.75;;;;;;;;;;5035181;28;20206;-65
2023/10/17 11:40:29;;;;;;;6.32;2.25;;;;;;;;;;5036240;28;20199;-66
2023/10/17 11:42:56;;;;;;;2.35;2.15;;;;;;;;;;5031248;28;20677;-66
2023/10/17 11:45:31;;;;;;;6.40;2.50;;;;;;;;;;5034880;28;20203;-66
2023/10/17 11:47:58;;;;;;;7.05;1.98;;;;;;;;;;5033546;28;20214;-65
2023/10/17 11:50:42;;;;;;;6.97;2.17;;;;;;;;;;5034088;28;20198;-65
2023/10/17 11:53:12;;;;;;;9.05;2.25;;;;;;;;;;5032123;28;20713;-66
2023/10/17 11:55:43;;;;;;;6.90;2.35;;;;;;;;;;5034899;28;20204;-64
2023/10/17 11:58:10;;;;;;;9.77;2.50;;;;;;;;;;5033230;28;20647;-65
2023/10/17 12:00:37;;;;;;;6.47;2.53;;;;;;;;;;5031235;28;21675;-65
2023/10/17 12:03:04;;;;;;;7.70;2.25;;;;;;;;;;5030146;28;20214;-66
2023/10/17 12:05:32;;;;;;;23.13;2.92;;;;;;;;;;5031608;28;20245;-65
2023/10/17 12:07:59;;;;;;;2.50;2.30;;;;;;;;;;5030353;28;20199;-66
2023/10/17 12:10:28;;;;;;;5.10;2.20;;;;;;;;;;5034222;28;20739;-65
2023/10/17 12:12:58;;;;;;;4.22;2.47;;;;;;;;;;5033668;28;20222;-65
2023/10/17 12:15:25;;;;;;;7.82;2.30;;;;;;;;;;5033376;28;20285;-66
2023/10/17 12:17:53;;;;;;;3.05;2.42;;;;;;;;;;5033819;28;20207;-66
2023/10/17 12:20:25;;;;;;;7.00;2.72;;;;;;;;;;5031719;28;20215;-67
2023/10/17 12:22:54;;;;;;;2.60;2.40;;;;;;;;;;5030007;28;20661;-65
2023/10/17 12:25:23;;;;;;;2.25;2.00;;;;;;;;;;5030330;28;20214;-65
2023/10/17 12:27:52;;;;;;;5.70;2.55;;;;;;;;;;5030100;28;20286;-65
2023/10/17 12:30:24;;;;;;;2.40;2.15;;;;;;;;;;5029838;28;20696;-65
2023/10/17 12:32:51;;;;;;;10.18;3.08;;;;;;;;;;5033575;28;20227;-66
2023/10/17 12:35:21;;;;;;;7.68;3.50;;;;;;;;;;5032829;28;20214;-66
2023/10/17 12:37:50;;;;;;;5.68;2.35;;;;;;;;;;5036171;28;20203;-68
2023/10/17 12:40:20;;;;;;;2.10;2.00;;;;;;;;;;5034568;28;20208;-65
2023/10/17 12:42:47;;;;;;;5.57;2.72;;;;;;;;;;5039733;28;20212;-67
2023/10/17 12:45:15;;;;;;;5.97;2.60;;;;;;;;;;5036684;28;20207;-67
2023/10/17 12:47:43;;;;;;;3.78;2.75;;;;;;;;;;5035576;28;20200;-66
2023/10/17 12:50:11;;;;;;;5.25;3.47;;;;;;;;;;5034411;28;20273;-65
2023/10/17 12:52:38;;;;;;;3.00;2.55;;;;;;;;;;5036975;28;20227;-66
2023/10/17 12:55:05;;;;;;;2.83;2.58;;;;;;;;;;5036534;28;20713;-66
2023/10/17 12:57:31;;;;;;;2.30;2.10;;;;;;;;;;5035521;28;20207;-65
2023/10/17 12:59:59;;;;;;;2.83;2.55;;;;;;;;;;5038468;28;20289;-65
2023/10/17 13:02:29;;;;;;;2.78;2.55;;;;;;;;;;5039240;28;20668;-66
2023/10/17 13:04:55;;;;;;;4.43;2.17;;;;;;;;;;5035615;28;20291;-65
2023/10/17 13:07:23;;;;;;;2.22;2.05;;;;;;;;;;5038546;28;20226;-66
2023/10/17 13:09:48;;;;;;;11.82;2.45;;;;;;;;;;5035026;28;20207;-65
2023/10/17 13:12:15;;;;;;;4.00;2.05;;;;;;;;;;5035675;28;20230;-66
2023/10/17 13:14:42;;;;;;;3.85;2.20;;;;;;;;;;5036211;28;20659;-66
2023/10/17 13:17:09;;;;;;;2.67;2.53;;;;;;;;;;5036875;28;20222;-64
2023/10/17 13:19:40;;;;;;;4.82;2.60;;;;;;;;;;5033128;28;20203;-64
2023/10/17 13:22:08;;;;;;;5.35;2.67;;;;;;;;;;5034846;28;20297;-64
2023/10/17 13:24:35;;;;;;;2.47;2.13;;;;;;;;;;5033826;28;20208;-64
2023/10/17 13:27:04;;;;;;;4.28;2.30;;;;;;;;;;5036656;28;20211;-65
2023/10/17 13:29:31;;;;;;;4.28;2.90;;;;;;;;;;5038147;28;20213;-64
2023/10/17 13:31:58;;;;;;;3.22;2.63;;;;;;;;;;5036757;28;20219;-63
2023/10/17 13:34:27;;;;;;;6.22;2.08;;;;;;;;;;5033728;28;20204;-63
2023/10/17 13:36:55;;;;;;;3.17;2.22;;;;;;;;;;5036760;28;20207;-65
2023/10/17 13:39:24;;;;;;;3.20;2.15;;;;;;;;;;5034186;28;20234;-63
2023/10/17 13:41:50;;;;;;;4.82;2.75;;;;;;;;;;5032775;28;20700;-63
2023/10/17 13:44:17;;;;;;;2.30;2.13;;;;;;;;;;5034895;28;20227;-63
2023/10/17 13:46:43;;;;;;;3.90;2.40;;;;;;;;;;5036123;28;20293;-64
2023/10/17 13:49:10;;;;;;;4.60;1.92;;;;;;;;;;5035223;28;20200;-63
2023/10/17 13:51:36;;;;;;;5.10;2.63;;;;;;;;;;5038170;28;20204;-63
2023/10/17 13:54:05;;;;;;;2.25;2.15;;;;;;;;;;5034155;28;20231;-62
2023/10/17 13:56:33;;;;;;;3.08;2.58;;;;;;;;;;5032645;28;20464;-64
2023/10/17 13:58:59;;;;;;;7.72;2.38;;;;;;;;;;5036682;28;20209;-63
2023/10/17 14:01:31;;;;;;;4.40;2.55;;;;;;;;;;5032347;28;20199;-63
2023/10/17 14:03:59;;;;;;;3.00;2.75;;;;;;;;;;5032397;28;20254;-64
2023/10/17 14:06:27;;;;;;;5.90;2.67;;;;;;;;;;5033447;28;20252;-64
2023/10/17 14:08:55;;;;;;;4.85;2.85;;;;;;;;;;5036708;28;20239;-63
2023/10/17 14:11:24;;;;;;;3.13;2.90;;;;;;;;;;5038451;28;20238;-63
2023/10/17 14:13:50;;;;;;;3.38;3.08;;;;;;;;;;5036413;28;20223;-63
2023/10/17 14:16:17;;;;;;;3.40;2.97;;;;;;;;;;5031985;28;20203;-63
2023/10/17 14:18:46;;;;;;;3.67;2.85;;;;;;;;;;5037058;28;20203;-63
2023/10/17 14:21:23;;;;;;;3.63;2.65;;;;;;;;;;5032789;28;20698;-65
2023/10/17 14:23:58;;;;;;;5.30;2.58;;;;;;;;;;5031447;28;20257;-63
2023/10/17 14:26:27;;;;;;;3.33;3.03;;;;;;;;;;5032231;28;20203;-64
2023/10/17 14:28:53;;;;;;;2.70;2.53;;;;;;;;;;5033438;28;20207;-64
2023/10/17 14:31:19;;;;;;;4.18;2.55;;;;;;;;;;5032502;28;20590;-63
2023/10/17 14:33:46;;;;;;;3.47;2.60;;;;;;;;;;5032495;28;20701;-64
2023/10/17 14:36:13;;;;;;;2.90;2.50;;;;;;;;;;5032269;28;20203;-62
2023/10/17 14:38:39;;;;;;;5.50;2.63;;;;;;;;;;5034855;28;20222;-64
2023/10/17 14:41:09;;;;;;;2.72;2.53;;;;;;;;;;5033608;28;20609;-62
2023/10/17 14:43:37;;;;;;;2.80;2.50;;;;;;;;;;5032539;28;20314;-62
2023/10/17 14:46:05;;;;;;;7.53;2.53;;;;;;;;;;5032834;28;20228;-63
2023/10/17 14:48:31;;;;;;;19.65;3.05;;;;;;;;;;5033024;28;20207;-63
2023/10/17 14:51:01;;;;;;;2.75;2.55;;;;;;;;;;5032511;28;20662;-63
2023/10/17 14:53:28;;;;;;;3.80;2.30;;;;;;;;;;5031696;28;20315;-64
2023/10/17 14:55:57;;;;;;;3.53;3.20;;;;;;;;;;5030923;28;20242;-63
2023/10/17 14:58:24;;;;;;;2.28;2.00;;;;;;;;;;5036236;28;20211;-64
2023/10/17 15:00:53;;;;;;;7.13;2.33;;;;;;;;;;5035953;28;20208;-63
2023/10/17 15:03:20;;;;;;;4.50;2.42;;;;;;;;;;5037156;28;20207;-63
2023/10/17 15:05:46;;;;;;;6.57;2.70;;;;;;;;;;5035934;28;20223;-63
2023/10/17 15:08:12;;;;;;;3.25;2.95;;;;;;;;;;5032229;28;20204;-63
2023/10/17 15:10:40;;;;;;;3.78;2.67;;;;;;;;;;5035424;28;20246;-65
2023/10/17 15:13:08;;;;;;;5.80;3.08;;;;;;;;;;5033691;28;20346;-63